sensor_id;sensor_type;location;lat;lon;timestamp;P1;durP1;ratioP1;P2;durP2;ratioP2
3841;SDS011;1936;47.074;15.336;2023-07-20T00:00:36;6.33;;;5.30;;
3841;SDS011;1936;47.074;15.336;2023-07-20T00:02:49;8.13;;;4.70;;
3841;SDS011;1936;47.074;15.336;2023-07-20T00:04:53;6.00;;;4.50;;
3841;SDS011;1936;47.074;15.336;2023-07-20T00:06:57;9.00;;;5.00;;
3841;SDS011;1936;47.074;15.336;2023-07-20T00:09:00;6.37;;;5.70;;
3841;SDS011;1936;47.074;15.336;2023-07-20T00:11:03;6.67;;;5.00;;
3841;SDS011;1936;47.074;15.336;2023-07-20T00:13:07;7.60;;;5.03;;
3841;SDS011;1936;47.074;15.336;2023-07-20T00:15:11;8.23;;;5.63;;
3841;SDS011;1936;47.074;15.336;2023-07-20T00:17:14;9.10;;;5.50;;
3841;SDS011;1936;47.074;15.336;2023-07-20T00:19:19;7.80;;;5.60;;
3841;SDS011;1936;47.074;15.336;2023-07-20T00:21:22;7.67;;;5.47;;
3841;SDS011;1936;47.074;15.336;2023-07-20T00:23:26;10.53;;;5.50;;
3841;SDS011;1936;47.074;15.336;2023-07-20T00:25:29;7.20;;;4.97;;
3841;SDS011;1936;47.074;15.336;2023-07-20T00:27:33;7.07;;;5.17;;
3841;SDS011;1936;47.074;15.336;2023-07-20T00:29:36;6.77;;;5.27;;
3841;SDS011;1936;47.074;15.336;2023-07-20T00:31:40;5.47;;;4.97;;
3841;SDS011;1936;47.074;15.336;2023-07-20T00:33:45;7.67;;;6.30;;
3841;SDS011;1936;47.074;15.336;2023-07-20T00:35:50;6.30;;;5.17;;
3841;SDS011;1936;47.074;15.336;2023-07-20T00:37:54;6.20;;;4.80;;
3841;SDS011;1936;47.074;15.336;2023-07-20T00:39:57;5.53;;;5.00;;
3841;SDS011;1936;47.074;15.336;2023-07-20T00:42:00;5.17;;;4.60;;
3841;SDS011;1936;47.074;15.336;2023-07-20T00:44:04;9.40;;;5.73;;
3841;SDS011;1936;47.074;15.336;2023-07-20T00:46:07;10.23;;;5.93;;
3841;SDS011;1936;47.074;15.336;2023-07-20T00:48:13;9.70;;;6.03;;
3841;SDS011;1936;47.074;15.336;2023-07-20T00:50:17;6.73;;;5.63;;
3841;SDS011;1936;47.074;15.336;2023-07-20T00:52:22;7.73;;;4.83;;
3841;SDS011;1936;47.074;15.336;2023-07-20T00:54:27;7.00;;;6.30;;
3841;SDS011;1936;47.074;15.336;2023-07-20T00:56:31;10.43;;;5.67;;
3841;SDS011;1936;47.074;15.336;2023-07-20T00:58:35;7.20;;;5.37;;
3841;SDS011;1936;47.074;15.336;2023-07-20T01:00:38;10.63;;;5.03;;
3841;SDS011;1936;47.074;15.336;2023-07-20T01:02:41;6.20;;;5.60;;
3841;SDS011;1936;47.074;15.336;2023-07-20T01:04:45;5.33;;;4.43;;
3841;SDS011;1936;47.074;15.336;2023-07-20T01:06:49;7.67;;;4.13;;
3841;SDS011;1936;47.074;15.336;2023-07-20T01:09:00;8.00;;;4.80;;
3841;SDS011;1936;47.074;15.336;2023-07-20T01:11:13;7.00;;;5.43;;
3841;SDS011;1936;47.074;15.336;2023-07-20T01:13:20;5.90;;;4.83;;
3841;SDS011;1936;47.074;15.336;2023-07-20T01:15:24;4.77;;;4.27;;
3841;SDS011;1936;47.074;15.336;2023-07-20T01:17:28;4.80;;;4.23;;
3841;SDS011;1936;47.074;15.336;2023-07-20T01:19:31;6.93;;;4.60;;
3841;SDS011;1936;47.074;15.336;2023-07-20T01:21:37;6.07;;;4.93;;
3841;SDS011;1936;47.074;15.336;2023-07-20T01:26:35;6.40;;;4.20;;
3841;SDS011;1936;47.074;15.336;2023-07-20T01:28:49;5.57;;;4.37;;
3841;SDS011;1936;47.074;15.336;2023-07-20T01:31:14;7.17;;;5.17;;
3841;SDS011;1936;47.074;15.336;2023-07-20T01:33:23;9.30;;;5.80;;
3841;SDS011;1936;47.074;15.336;2023-07-20T01:35:29;4.93;;;4.03;;
3841;SDS011;1936;47.074;15.336;2023-07-20T01:37:33;5.57;;;4.90;;
3841;SDS011;1936;47.074;15.336;2023-07-20T01:39:37;6.77;;;4.73;;
3841;SDS011;1936;47.074;15.336;2023-07-20T01:41:41;6.97;;;4.37;;
3841;SDS011;1936;47.074;15.336;2023-07-20T01:43:45;6.20;;;5.33;;
3841;SDS011;1936;47.074;15.336;2023-07-20T01:45:48;5.03;;;4.07;;
3841;SDS011;1936;47.074;15.336;2023-07-20T01:47:52;5.97;;;4.50;;
3841;SDS011;1936;47.074;15.336;2023-07-20T01:49:56;5.20;;;4.70;;
3841;SDS011;1936;47.074;15.336;2023-07-20T01:51:59;6.17;;;4.80;;
3841;SDS011;1936;47.074;15.336;2023-07-20T01:54:03;5.47;;;4.67;;
3841;SDS011;1936;47.074;15.336;2023-07-20T01:56:06;6.33;;;4.87;;
3841;SDS011;1936;47.074;15.336;2023-07-20T01:58:09;6.93;;;4.30;;
3841;SDS011;1936;47.074;15.336;2023-07-20T02:00:13;5.23;;;4.50;;
3841;SDS011;1936;47.074;15.336;2023-07-20T02:02:17;5.87;;;3.70;;
3841;SDS011;1936;47.074;15.336;2023-07-20T02:04:23;6.37;;;4.70;;
3841;SDS011;1936;47.074;15.336;2023-07-20T02:06:27;5.50;;;4.37;;
3841;SDS011;1936;47.074;15.336;2023-07-20T02:08:30;6.17;;;4.40;;
3841;SDS011;1936;47.074;15.336;2023-07-20T02:10:34;18.87;;;5.83;;
3841;SDS011;1936;47.074;15.336;2023-07-20T02:12:38;4.83;;;4.33;;
3841;SDS011;1936;47.074;15.336;2023-07-20T02:14:42;6.60;;;4.63;;
3841;SDS011;1936;47.074;15.336;2023-07-20T02:16:45;5.80;;;5.20;;
3841;SDS011;1936;47.074;15.336;2023-07-20T02:18:52;7.17;;;5.20;;
3841;SDS011;1936;47.074;15.336;2023-07-20T02:20:59;4.43;;;4.00;;
3841;SDS011;1936;47.074;15.336;2023-07-20T02:23:03;6.60;;;5.73;;
3841;SDS011;1936;47.074;15.336;2023-07-20T02:25:07;6.47;;;5.87;;
3841;SDS011;1936;47.074;15.336;2023-07-20T02:27:10;5.80;;;5.20;;
3841;SDS011;1936;47.074;15.336;2023-07-20T02:29:13;5.40;;;4.53;;
3841;SDS011;1936;47.074;15.336;2023-07-20T02:31:17;6.60;;;4.53;;
3841;SDS011;1936;47.074;15.336;2023-07-20T02:33:20;7.60;;;5.23;;
3841;SDS011;1936;47.074;15.336;2023-07-20T02:35:24;7.00;;;4.50;;
3841;SDS011;1936;47.074;15.336;2023-07-20T02:37:29;5.00;;;4.23;;
3841;SDS011;1936;47.074;15.336;2023-07-20T02:39:33;4.60;;;4.17;;
3841;SDS011;1936;47.074;15.336;2023-07-20T02:41:37;9.83;;;5.20;;
3841;SDS011;1936;47.074;15.336;2023-07-20T02:43:41;4.60;;;4.00;;
3841;SDS011;1936;47.074;15.336;2023-07-20T02:45:45;5.70;;;4.40;;
3841;SDS011;1936;47.074;15.336;2023-07-20T02:47:47;8.00;;;5.67;;
3841;SDS011;1936;47.074;15.336;2023-07-20T02:49:51;5.90;;;5.10;;
3841;SDS011;1936;47.074;15.336;2023-07-20T02:51:54;5.60;;;4.50;;
3841;SDS011;1936;47.074;15.336;2023-07-20T02:54:00;6.30;;;4.50;;
3841;SDS011;1936;47.074;15.336;2023-07-20T02:56:03;5.40;;;4.87;;
3841;SDS011;1936;47.074;15.336;2023-07-20T02:58:06;6.97;;;4.30;;
3841;SDS011;1936;47.074;15.336;2023-07-20T03:00:10;5.10;;;4.40;;
3841;SDS011;1936;47.074;15.336;2023-07-20T03:02:16;6.23;;;4.93;;
3841;SDS011;1936;47.074;15.336;2023-07-20T03:04:20;7.83;;;4.80;;
3841;SDS011;1936;47.074;15.336;2023-07-20T03:06:23;5.53;;;5.00;;
3841;SDS011;1936;47.074;15.336;2023-07-20T03:08:27;5.60;;;4.87;;
3841;SDS011;1936;47.074;15.336;2023-07-20T03:10:32;7.57;;;4.30;;
3841;SDS011;1936;47.074;15.336;2023-07-20T03:12:40;4.53;;;4.13;;
3841;SDS011;1936;47.074;15.336;2023-07-20T03:14:43;5.93;;;4.43;;
3841;SDS011;1936;47.074;15.336;2023-07-20T03:16:47;4.77;;;4.00;;
3841;SDS011;1936;47.074;15.336;2023-07-20T03:18:50;4.87;;;4.37;;
3841;SDS011;1936;47.074;15.336;2023-07-20T03:20:54;6.03;;;4.63;;
3841;SDS011;1936;47.074;15.336;2023-07-20T03:22:57;5.27;;;2.93;;
3841;SDS011;1936;47.074;15.336;2023-07-20T03:25:01;6.40;;;4.40;;
3841;SDS011;1936;47.074;15.336;2023-07-20T03:27:06;6.00;;;4.00;;
3841;SDS011;1936;47.074;15.336;2023-07-20T03:29:09;4.27;;;3.67;;
3841;SDS011;1936;47.074;15.336;2023-07-20T03:31:12;6.17;;;3.97;;
3841;SDS011;1936;47.074;15.336;2023-07-20T03:33:16;5.57;;;4.00;;
3841;SDS011;1936;47.074;15.336;2023-07-20T03:35:20;4.67;;;4.20;;
3841;SDS011;1936;47.074;15.336;2023-07-20T03:37:23;3.70;;;3.07;;
3841;SDS011;1936;47.074;15.336;2023-07-20T03:39:27;5.07;;;4.40;;
3841;SDS011;1936;47.074;15.336;2023-07-20T03:41:30;4.40;;;3.97;;
3841;SDS011;1936;47.074;15.336;2023-07-20T03:43:35;7.50;;;4.20;;
3841;SDS011;1936;47.074;15.336;2023-07-20T03:45:39;5.03;;;3.70;;
3841;SDS011;1936;47.074;15.336;2023-07-20T03:47:43;3.87;;;3.43;;
3841;SDS011;1936;47.074;15.336;2023-07-20T03:49:50;4.60;;;3.73;;
3841;SDS011;1936;47.074;15.336;2023-07-20T03:51:53;4.80;;;3.70;;
3841;SDS011;1936;47.074;15.336;2023-07-20T03:53:57;6.50;;;4.10;;
3841;SDS011;1936;47.074;15.336;2023-07-20T03:56:01;5.17;;;4.23;;
3841;SDS011;1936;47.074;15.336;2023-07-20T03:58:03;6.97;;;4.27;;
3841;SDS011;1936;47.074;15.336;2023-07-20T04:00:09;5.53;;;4.13;;
3841;SDS011;1936;47.074;15.336;2023-07-20T04:02:13;7.30;;;3.73;;
3841;SDS011;1936;47.074;15.336;2023-07-20T04:04:17;7.00;;;4.00;;
3841;SDS011;1936;47.074;15.336;2023-07-20T04:06:20;6.20;;;4.73;;
3841;SDS011;1936;47.074;15.336;2023-07-20T04:08:24;3.93;;;3.63;;
3841;SDS011;1936;47.074;15.336;2023-07-20T04:10:27;4.90;;;4.33;;
3841;SDS011;1936;47.074;15.336;2023-07-20T04:12:31;7.20;;;4.10;;
3841;SDS011;1936;47.074;15.336;2023-07-20T04:14:35;3.97;;;3.53;;
3841;SDS011;1936;47.074;15.336;2023-07-20T04:16:40;5.93;;;4.07;;
3841;SDS011;1936;47.074;15.336;2023-07-20T04:18:43;4.70;;;4.20;;
3841;SDS011;1936;47.074;15.336;2023-07-20T04:20:47;5.60;;;4.40;;
3841;SDS011;1936;47.074;15.336;2023-07-20T04:22:50;4.30;;;3.47;;
3841;SDS011;1936;47.074;15.336;2023-07-20T04:24:55;10.23;;;4.43;;
3841;SDS011;1936;47.074;15.336;2023-07-20T04:26:58;6.03;;;4.20;;
3841;SDS011;1936;47.074;15.336;2023-07-20T04:29:02;5.23;;;4.60;;
3841;SDS011;1936;47.074;15.336;2023-07-20T04:31:09;11.67;;;4.00;;
3841;SDS011;1936;47.074;15.336;2023-07-20T04:33:15;4.13;;;3.70;;
3841;SDS011;1936;47.074;15.336;2023-07-20T04:37:47;5.83;;;3.93;;
3841;SDS011;1936;47.074;15.336;2023-07-20T04:39:51;4.17;;;3.77;;
3841;SDS011;1936;47.074;15.336;2023-07-20T04:41:54;7.43;;;3.70;;
3841;SDS011;1936;47.074;15.336;2023-07-20T04:43:58;5.53;;;4.00;;
3841;SDS011;1936;47.074;15.336;2023-07-20T04:46:01;5.70;;;4.00;;
3841;SDS011;1936;47.074;15.336;2023-07-20T04:48:06;6.13;;;4.23;;
3841;SDS011;1936;47.074;15.336;2023-07-20T04:50:14;4.93;;;4.43;;
3841;SDS011;1936;47.074;15.336;2023-07-20T04:52:16;6.30;;;3.87;;
3841;SDS011;1936;47.074;15.336;2023-07-20T04:54:24;4.53;;;3.77;;
3841;SDS011;1936;47.074;15.336;2023-07-20T04:56:28;4.50;;;4.10;;
3841;SDS011;1936;47.074;15.336;2023-07-20T04:58:32;5.07;;;3.90;;
3841;SDS011;1936;47.074;15.336;2023-07-20T05:00:37;5.70;;;4.30;;
3841;SDS011;1936;47.074;15.336;2023-07-20T05:02:41;9.17;;;5.03;;
3841;SDS011;1936;47.074;15.336;2023-07-20T05:04:45;5.37;;;3.87;;
3841;SDS011;1936;47.074;15.336;2023-07-20T05:06:50;5.00;;;4.50;;
3841;SDS011;1936;47.074;15.336;2023-07-20T05:08:53;5.33;;;4.40;;
3841;SDS011;1936;47.074;15.336;2023-07-20T05:10:57;4.97;;;3.83;;
3841;SDS011;1936;47.074;15.336;2023-07-20T05:13:00;5.80;;;4.00;;
3841;SDS011;1936;47.074;15.336;2023-07-20T05:15:04;7.80;;;4.93;;
3841;SDS011;1936;47.074;15.336;2023-07-20T05:17:08;5.20;;;4.17;;
3841;SDS011;1936;47.074;15.336;2023-07-20T05:19:11;6.00;;;4.30;;
3841;SDS011;1936;47.074;15.336;2023-07-20T05:21:15;7.73;;;4.73;;
3841;SDS011;1936;47.074;15.336;2023-07-20T05:23:20;9.77;;;4.10;;
3841;SDS011;1936;47.074;15.336;2023-07-20T05:25:23;4.90;;;4.30;;
3841;SDS011;1936;47.074;15.336;2023-07-20T05:27:27;6.40;;;3.90;;
3841;SDS011;1936;47.074;15.336;2023-07-20T05:29:31;5.03;;;4.53;;
3841;SDS011;1936;47.074;15.336;2023-07-20T05:31:34;5.73;;;4.23;;
3841;SDS011;1936;47.074;15.336;2023-07-20T05:33:38;6.20;;;3.80;;
3841;SDS011;1936;47.074;15.336;2023-07-20T05:35:41;6.13;;;4.10;;
3841;SDS011;1936;47.074;15.336;2023-07-20T05:37:45;4.60;;;4.20;;
3841;SDS011;1936;47.074;15.336;2023-07-20T05:39:50;5.33;;;4.13;;
3841;SDS011;1936;47.074;15.336;2023-07-20T05:41:54;9.63;;;4.53;;
3841;SDS011;1936;47.074;15.336;2023-07-20T05:43:57;5.20;;;3.63;;
3841;SDS011;1936;47.074;15.336;2023-07-20T05:46:00;5.50;;;4.30;;
3841;SDS011;1936;47.074;15.336;2023-07-20T05:48:04;5.43;;;4.07;;
3841;SDS011;1936;47.074;15.336;2023-07-20T05:50:08;5.07;;;4.57;;
3841;SDS011;1936;47.074;15.336;2023-07-20T05:52:12;7.63;;;3.87;;
3841;SDS011;1936;47.074;15.336;2023-07-20T05:54:16;15.80;;;5.33;;
3841;SDS011;1936;47.074;15.336;2023-07-20T05:56:20;6.30;;;4.90;;
3841;SDS011;1936;47.074;15.336;2023-07-20T05:58:24;5.83;;;3.80;;
3841;SDS011;1936;47.074;15.336;2023-07-20T06:00:27;6.20;;;4.60;;
3841;SDS011;1936;47.074;15.336;2023-07-20T06:02:31;10.80;;;4.60;;
3841;SDS011;1936;47.074;15.336;2023-07-20T06:04:34;9.53;;;4.27;;
3841;SDS011;1936;47.074;15.336;2023-07-20T06:06:38;9.80;;;4.03;;
3841;SDS011;1936;47.074;15.336;2023-07-20T06:08:41;4.70;;;3.80;;
3841;SDS011;1936;47.074;15.336;2023-07-20T06:10:49;7.00;;;4.80;;
3841;SDS011;1936;47.074;15.336;2023-07-20T06:12:55;5.33;;;3.87;;
3841;SDS011;1936;47.074;15.336;2023-07-20T06:15:01;4.97;;;4.47;;
3841;SDS011;1936;47.074;15.336;2023-07-20T06:17:05;7.57;;;4.17;;
3841;SDS011;1936;47.074;15.336;2023-07-20T06:19:08;6.00;;;4.13;;
3841;SDS011;1936;47.074;15.336;2023-07-20T06:21:12;4.47;;;4.07;;
3841;SDS011;1936;47.074;15.336;2023-07-20T06:23:15;5.33;;;4.50;;
3841;SDS011;1936;47.074;15.336;2023-07-20T06:25:19;4.50;;;3.93;;
3841;SDS011;1936;47.074;15.336;2023-07-20T06:27:23;4.43;;;4.03;;
3841;SDS011;1936;47.074;15.336;2023-07-20T06:29:28;5.80;;;3.40;;
3841;SDS011;1936;47.074;15.336;2023-07-20T06:31:32;7.47;;;4.37;;
3841;SDS011;1936;47.074;15.336;2023-07-20T06:33:36;7.60;;;3.93;;
3841;SDS011;1936;47.074;15.336;2023-07-20T06:35:41;6.37;;;4.00;;
3841;SDS011;1936;47.074;15.336;2023-07-20T06:37:45;6.63;;;3.30;;
3841;SDS011;1936;47.074;15.336;2023-07-20T06:39:49;6.53;;;3.87;;
3841;SDS011;1936;47.074;15.336;2023-07-20T06:41:55;5.43;;;5.03;;
3841;SDS011;1936;47.074;15.336;2023-07-20T06:43:58;4.47;;;3.90;;
3841;SDS011;1936;47.074;15.336;2023-07-20T06:46:03;4.87;;;3.50;;
3841;SDS011;1936;47.074;15.336;2023-07-20T06:48:06;5.73;;;4.13;;
3841;SDS011;1936;47.074;15.336;2023-07-20T06:50:10;5.10;;;4.20;;
3841;SDS011;1936;47.074;15.336;2023-07-20T06:52:17;5.90;;;4.37;;
3841;SDS011;1936;47.074;15.336;2023-07-20T06:54:20;4.53;;;3.60;;
3841;SDS011;1936;47.074;15.336;2023-07-20T06:56:24;4.70;;;3.97;;
3841;SDS011;1936;47.074;15.336;2023-07-20T06:58:29;5.67;;;4.60;;
3841;SDS011;1936;47.074;15.336;2023-07-20T07:00:34;8.73;;;4.60;;
3841;SDS011;1936;47.074;15.336;2023-07-20T07:02:38;7.53;;;4.60;;
3841;SDS011;1936;47.074;15.336;2023-07-20T07:04:42;5.03;;;4.33;;
3841;SDS011;1936;47.074;15.336;2023-07-20T07:06:47;5.30;;;4.90;;
3841;SDS011;1936;47.074;15.336;2023-07-20T07:08:50;6.03;;;4.00;;
3841;SDS011;1936;47.074;15.336;2023-07-20T07:10:55;6.90;;;4.57;;
3841;SDS011;1936;47.074;15.336;2023-07-20T07:12:58;4.60;;;4.03;;
3841;SDS011;1936;47.074;15.336;2023-07-20T07:15:03;5.50;;;3.93;;
3841;SDS011;1936;47.074;15.336;2023-07-20T07:17:08;7.60;;;4.67;;
3841;SDS011;1936;47.074;15.336;2023-07-20T07:19:13;8.73;;;4.33;;
3841;SDS011;1936;47.074;15.336;2023-07-20T07:21:16;5.80;;;4.10;;
3841;SDS011;1936;47.074;15.336;2023-07-20T07:23:20;6.00;;;4.10;;
3841;SDS011;1936;47.074;15.336;2023-07-20T07:25:23;7.50;;;4.53;;
3841;SDS011;1936;47.074;15.336;2023-07-20T07:27:28;5.63;;;4.53;;
3841;SDS011;1936;47.074;15.336;2023-07-20T07:29:32;6.40;;;4.80;;
3841;SDS011;1936;47.074;15.336;2023-07-20T07:31:35;4.77;;;3.60;;
3841;SDS011;1936;47.074;15.336;2023-07-20T07:33:40;10.43;;;4.80;;
3841;SDS011;1936;47.074;15.336;2023-07-20T07:35:45;4.03;;;3.63;;
3841;SDS011;1936;47.074;15.336;2023-07-20T07:37:49;4.20;;;3.33;;
3841;SDS011;1936;47.074;15.336;2023-07-20T07:40:12;4.67;;;4.00;;
3841;SDS011;1936;47.074;15.336;2023-07-20T07:42:15;5.90;;;3.90;;
3841;SDS011;1936;47.074;15.336;2023-07-20T07:44:19;4.17;;;3.77;;
3841;SDS011;1936;47.074;15.336;2023-07-20T07:46:23;3.77;;;3.27;;
3841;SDS011;1936;47.074;15.336;2023-07-20T07:48:27;8.87;;;3.50;;
3841;SDS011;1936;47.074;15.336;2023-07-20T07:50:31;3.67;;;3.30;;
3841;SDS011;1936;47.074;15.336;2023-07-20T07:52:36;5.87;;;3.50;;
3841;SDS011;1936;47.074;15.336;2023-07-20T07:54:38;7.03;;;3.20;;
3841;SDS011;1936;47.074;15.336;2023-07-20T07:56:42;4.10;;;3.57;;
3841;SDS011;1936;47.074;15.336;2023-07-20T07:58:46;4.60;;;3.47;;
3841;SDS011;1936;47.074;15.336;2023-07-20T08:00:49;5.03;;;4.40;;
3841;SDS011;1936;47.074;15.336;2023-07-20T08:02:52;2.60;;;2.40;;
3841;SDS011;1936;47.074;15.336;2023-07-20T08:04:56;4.33;;;3.77;;
3841;SDS011;1936;47.074;15.336;2023-07-20T08:07:03;4.73;;;3.33;;
3841;SDS011;1936;47.074;15.336;2023-07-20T08:09:08;3.50;;;3.20;;
3841;SDS011;1936;47.074;15.336;2023-07-20T08:11:12;4.10;;;3.47;;
3841;SDS011;1936;47.074;15.336;2023-07-20T08:13:16;4.77;;;3.63;;
3841;SDS011;1936;47.074;15.336;2023-07-20T08:15:19;4.07;;;3.77;;
3841;SDS011;1936;47.074;15.336;2023-07-20T08:17:22;4.93;;;3.70;;
3841;SDS011;1936;47.074;15.336;2023-07-20T08:19:26;4.40;;;4.00;;
3841;SDS011;1936;47.074;15.336;2023-07-20T08:21:30;4.93;;;3.90;;
3841;SDS011;1936;47.074;15.336;2023-07-20T08:23:34;3.67;;;3.13;;
3841;SDS011;1936;47.074;15.336;2023-07-20T08:25:38;3.27;;;2.80;;
3841;SDS011;1936;47.074;15.336;2023-07-20T08:27:45;5.00;;;4.00;;
3841;SDS011;1936;47.074;15.336;2023-07-20T08:29:48;3.20;;;2.90;;
3841;SDS011;1936;47.074;15.336;2023-07-20T08:31:52;3.60;;;3.30;;
3841;SDS011;1936;47.074;15.336;2023-07-20T08:33:55;2.90;;;2.70;;
3841;SDS011;1936;47.074;15.336;2023-07-20T08:35:58;3.30;;;2.30;;
3841;SDS011;1936;47.074;15.336;2023-07-20T08:38:03;3.07;;;2.77;;
3841;SDS011;1936;47.074;15.336;2023-07-20T08:40:07;3.63;;;2.87;;
3841;SDS011;1936;47.074;15.336;2023-07-20T08:42:13;2.17;;;1.80;;
3841;SDS011;1936;47.074;15.336;2023-07-20T08:44:18;4.43;;;2.40;;
3841;SDS011;1936;47.074;15.336;2023-07-20T08:46:22;1.77;;;1.67;;
3841;SDS011;1936;47.074;15.336;2023-07-20T08:48:28;3.40;;;3.10;;
3841;SDS011;1936;47.074;15.336;2023-07-20T08:50:34;2.13;;;2.00;;
3841;SDS011;1936;47.074;15.336;2023-07-20T08:52:38;2.50;;;2.30;;
3841;SDS011;1936;47.074;15.336;2023-07-20T08:54:41;3.03;;;2.40;;
3841;SDS011;1936;47.074;15.336;2023-07-20T08:56:45;2.53;;;2.33;;
3841;SDS011;1936;47.074;15.336;2023-07-20T08:58:50;2.20;;;1.90;;
3841;SDS011;1936;47.074;15.336;2023-07-20T09:00:55;2.23;;;2.10;;
3841;SDS011;1936;47.074;15.336;2023-07-20T09:03:03;2.20;;;2.10;;
3841;SDS011;1936;47.074;15.336;2023-07-20T09:05:07;2.00;;;1.90;;
3841;SDS011;1936;47.074;15.336;2023-07-20T09:07:11;2.63;;;2.00;;
3841;SDS011;1936;47.074;15.336;2023-07-20T09:09:18;4.90;;;2.33;;
3841;SDS011;1936;47.074;15.336;2023-07-20T09:11:22;1.93;;;1.80;;
3841;SDS011;1936;47.074;15.336;2023-07-20T09:13:26;2.27;;;1.93;;
3841;SDS011;1936;47.074;15.336;2023-07-20T09:15:31;2.00;;;1.80;;
3841;SDS011;1936;47.074;15.336;2023-07-20T09:17:35;1.83;;;1.73;;
3841;SDS011;1936;47.074;15.336;2023-07-20T09:19:42;2.60;;;2.40;;
3841;SDS011;1936;47.074;15.336;2023-07-20T09:21:49;2.40;;;2.20;;
3841;SDS011;1936;47.074;15.336;2023-07-20T09:23:53;2.23;;;2.03;;
3841;SDS011;1936;47.074;15.336;2023-07-20T09:25:59;1.90;;;1.80;;
3841;SDS011;1936;47.074;15.336;2023-07-20T09:28:03;2.33;;;2.13;;
3841;SDS011;1936;47.074;15.336;2023-07-20T09:30:07;2.63;;;2.43;;
3841;SDS011;1936;47.074;15.336;2023-07-20T09:32:20;1.83;;;1.63;;
3841;SDS011;1936;47.074;15.336;2023-07-20T09:34:26;2.30;;;2.10;;
3841;SDS011;1936;47.074;15.336;2023-07-20T09:36:34;2.47;;;2.27;;
3841;SDS011;1936;47.074;15.336;2023-07-20T09:38:41;3.37;;;2.67;;
3841;SDS011;1936;47.074;15.336;2023-07-20T09:40:47;3.50;;;2.63;;
3841;SDS011;1936;47.074;15.336;2023-07-20T09:42:54;3.20;;;2.90;;
3841;SDS011;1936;47.074;15.336;2023-07-20T09:45:06;3.63;;;3.33;;
3841;SDS011;1936;47.074;15.336;2023-07-20T09:47:10;6.03;;;3.27;;
3841;SDS011;1936;47.074;15.336;2023-07-20T09:49:15;3.43;;;3.13;;
3841;SDS011;1936;47.074;15.336;2023-07-20T09:51:23;3.40;;;2.63;;
3841;SDS011;1936;47.074;15.336;2023-07-20T09:53:26;3.47;;;3.17;;
3841;SDS011;1936;47.074;15.336;2023-07-20T09:55:31;3.00;;;2.70;;
3841;SDS011;1936;47.074;15.336;2023-07-20T09:57:37;3.77;;;3.47;;
3841;SDS011;1936;47.074;15.336;2023-07-20T09:59:39;3.87;;;3.57;;
3841;SDS011;1936;47.074;15.336;2023-07-20T10:01:43;2.93;;;2.73;;
3841;SDS011;1936;47.074;15.336;2023-07-20T10:03:48;4.40;;;2.63;;
3841;SDS011;1936;47.074;15.336;2023-07-20T10:05:58;3.27;;;2.80;;
3841;SDS011;1936;47.074;15.336;2023-07-20T10:08:05;3.43;;;3.13;;
3841;SDS011;1936;47.074;15.336;2023-07-20T10:10:18;3.50;;;3.20;;
3841;SDS011;1936;47.074;15.336;2023-07-20T10:12:22;4.10;;;3.40;;
3841;SDS011;1936;47.074;15.336;2023-07-20T10:14:26;4.03;;;3.60;;
3841;SDS011;1936;47.074;15.336;2023-07-20T10:16:35;4.60;;;3.43;;
3841;SDS011;1936;47.074;15.336;2023-07-20T10:18:41;3.70;;;3.40;;
3841;SDS011;1936;47.074;15.336;2023-07-20T10:20:47;5.00;;;3.00;;
3841;SDS011;1936;47.074;15.336;2023-07-20T10:22:57;3.63;;;2.90;;
3841;SDS011;1936;47.074;15.336;2023-07-20T10:25:01;3.47;;;3.17;;
3841;SDS011;1936;47.074;15.336;2023-07-20T10:27:06;4.13;;;2.97;;
3841;SDS011;1936;47.074;15.336;2023-07-20T10:29:10;4.00;;;3.40;;
3841;SDS011;1936;47.074;15.336;2023-07-20T10:31:14;3.10;;;2.80;;
3841;SDS011;1936;47.074;15.336;2023-07-20T10:33:18;3.50;;;3.20;;
3841;SDS011;1936;47.074;15.336;2023-07-20T10:35:22;5.53;;;3.27;;
3841;SDS011;1936;47.074;15.336;2023-07-20T10:37:45;3.90;;;2.80;;
3841;SDS011;1936;47.074;15.336;2023-07-20T10:39:51;3.00;;;2.80;;
3841;SDS011;1936;47.074;15.336;2023-07-20T10:42:02;4.90;;;3.30;;
3841;SDS011;1936;47.074;15.336;2023-07-20T10:44:06;2.80;;;2.47;;
3841;SDS011;1936;47.074;15.336;2023-07-20T10:46:11;3.00;;;2.67;;
3841;SDS011;1936;47.074;15.336;2023-07-20T10:48:15;4.50;;;3.47;;
3841;SDS011;1936;47.074;15.336;2023-07-20T10:50:19;3.50;;;3.20;;
3841;SDS011;1936;47.074;15.336;2023-07-20T10:52:24;4.93;;;3.37;;
3841;SDS011;1936;47.074;15.336;2023-07-20T10:54:34;4.03;;;3.73;;
3841;SDS011;1936;47.074;15.336;2023-07-20T10:56:52;4.00;;;3.17;;
3841;SDS011;1936;47.074;15.336;2023-07-20T10:58:58;11.00;;;3.43;;
3841;SDS011;1936;47.074;15.336;2023-07-20T11:01:03;2.80;;;2.57;;
3841;SDS011;1936;47.074;15.336;2023-07-20T11:03:07;3.37;;;3.07;;
3841;SDS011;1936;47.074;15.336;2023-07-20T11:07:36;4.60;;;2.73;;
3841;SDS011;1936;47.074;15.336;2023-07-20T11:09:40;3.00;;;2.67;;
3841;SDS011;1936;47.074;15.336;2023-07-20T11:11:46;3.27;;;2.67;;
3841;SDS011;1936;47.074;15.336;2023-07-20T11:13:58;8.50;;;2.80;;
3841;SDS011;1936;47.074;15.336;2023-07-20T11:16:02;3.43;;;2.93;;
3841;SDS011;1936;47.074;15.336;2023-07-20T11:18:11;6.47;;;3.73;;
3841;SDS011;1936;47.074;15.336;2023-07-20T11:20:15;4.70;;;3.17;;
3841;SDS011;1936;47.074;15.336;2023-07-20T11:22:21;4.03;;;2.90;;
3841;SDS011;1936;47.074;15.336;2023-07-20T11:24:25;4.33;;;3.00;;
3841;SDS011;1936;47.074;15.336;2023-07-20T11:26:29;3.53;;;3.13;;
3841;SDS011;1936;47.074;15.336;2023-07-20T11:28:31;5.67;;;3.60;;
3841;SDS011;1936;47.074;15.336;2023-07-20T11:30:36;3.80;;;3.50;;
3841;SDS011;1936;47.074;15.336;2023-07-20T11:32:47;3.40;;;3.10;;
3841;SDS011;1936;47.074;15.336;2023-07-20T11:34:51;3.13;;;2.93;;
3841;SDS011;1936;47.074;15.336;2023-07-20T11:36:54;4.13;;;3.73;;
3841;SDS011;1936;47.074;15.336;2023-07-20T11:39:01;3.50;;;3.17;;
3841;SDS011;1936;47.074;15.336;2023-07-20T11:41:06;3.87;;;3.20;;
3841;SDS011;1936;47.074;15.336;2023-07-20T11:43:10;5.13;;;3.70;;
3841;SDS011;1936;47.074;15.336;2023-07-20T11:45:18;3.90;;;3.27;;
3841;SDS011;1936;47.074;15.336;2023-07-20T11:47:23;3.13;;;2.83;;
3841;SDS011;1936;47.074;15.336;2023-07-20T11:49:34;4.07;;;3.07;;
3841;SDS011;1936;47.074;15.336;2023-07-20T11:51:39;4.00;;;2.80;;
3841;SDS011;1936;47.074;15.336;2023-07-20T11:53:44;3.10;;;2.80;;
3841;SDS011;1936;47.074;15.336;2023-07-20T11:55:48;3.80;;;3.40;;
3841;SDS011;1936;47.074;15.336;2023-07-20T11:58:02;4.20;;;3.00;;
3841;SDS011;1936;47.074;15.336;2023-07-20T12:00:06;3.10;;;2.90;;
3841;SDS011;1936;47.074;15.336;2023-07-20T12:02:13;3.10;;;2.70;;
3841;SDS011;1936;47.074;15.336;2023-07-20T12:04:18;3.17;;;2.87;;
3841;SDS011;1936;47.074;15.336;2023-07-20T12:06:25;2.90;;;2.70;;
3841;SDS011;1936;47.074;15.336;2023-07-20T12:08:31;3.83;;;3.50;;
3841;SDS011;1936;47.074;15.336;2023-07-20T12:10:34;3.90;;;3.27;;
3841;SDS011;1936;47.074;15.336;2023-07-20T12:12:44;3.10;;;2.57;;
3841;SDS011;1936;47.074;15.336;2023-07-20T12:14:47;3.03;;;2.70;;
3841;SDS011;1936;47.074;15.336;2023-07-20T12:16:52;3.10;;;2.80;;
3841;SDS011;1936;47.074;15.336;2023-07-20T12:19:00;3.30;;;3.00;;
3841;SDS011;1936;47.074;15.336;2023-07-20T12:21:06;3.50;;;3.20;;
3841;SDS011;1936;47.074;15.336;2023-07-20T12:23:11;7.33;;;3.47;;
3841;SDS011;1936;47.074;15.336;2023-07-20T12:25:15;6.60;;;3.77;;
3841;SDS011;1936;47.074;15.336;2023-07-20T12:27:20;5.07;;;3.57;;
3841;SDS011;1936;47.074;15.336;2023-07-20T12:29:23;4.13;;;3.60;;
3841;SDS011;1936;47.074;15.336;2023-07-20T12:31:27;6.60;;;3.50;;
3841;SDS011;1936;47.074;15.336;2023-07-20T12:33:31;4.57;;;3.33;;
3841;SDS011;1936;47.074;15.336;2023-07-20T12:35:35;4.10;;;2.97;;
3841;SDS011;1936;47.074;15.336;2023-07-20T12:37:40;3.93;;;3.17;;
3841;SDS011;1936;47.074;15.336;2023-07-20T12:39:43;3.80;;;3.10;;
3841;SDS011;1936;47.074;15.336;2023-07-20T12:41:48;4.50;;;3.73;;
3841;SDS011;1936;47.074;15.336;2023-07-20T12:43:51;4.60;;;3.07;;
3841;SDS011;1936;47.074;15.336;2023-07-20T12:45:55;4.43;;;3.40;;
3841;SDS011;1936;47.074;15.336;2023-07-20T12:47:59;5.20;;;3.80;;
3841;SDS011;1936;47.074;15.336;2023-07-20T12:50:03;4.40;;;3.63;;